Time;durP1;ratioP1;P1;durP2;ratioP2;P2;SDS_P1;SDS_P2;PMS_P1;PMS_P2;Temp;Humidity;BMP_temperature;BMP_pressure;BME280_temperature;BME280_humidity;BME280_pressure;Samples;Min_cycle;Max_cycle;Signal;HPM_P1;HPM_P2
2020/12/10 00:00:10;;;;;;;0.50;0.50;;;3.10;99.90;;;;;;5075578;28;20291;-82
2020/12/10 00:02:36;;;;;;;0.67;0.40;;;3.10;99.90;;;;;;5073898;28;20271;-82
2020/12/10 00:05:02;;;;;;;1.10;0.47;;;3.20;99.90;;;;;;5072382;28;20228;-82
2020/12/10 00:07:28;;;;;;;0.47;0.47;;;3.20;99.90;;;;;;5068908;28;20615;-82
2020/12/10 00:09:54;;;;;;;0.40;0.40;;;3.20;99.90;;;;;;5070902;28;20232;-82
2020/12/10 00:12:20;;;;;;;1.90;1.03;;;3.30;99.90;;;;;;5072646;28;20222;-82
2020/12/10 00:14:46;;;;;;;1.50;1.00;;;3.30;99.90;;;;;;5073276;28;20714;-82
2020/12/10 00:17:12;;;;;;;1.70;0.67;;;3.30;99.90;;;;;;5070822;28;20272;-82
2020/12/10 00:19:39;;;;;;;0.70;0.57;;;3.30;99.90;;;;;;5068929;28;20200;-83
2020/12/10 00:22:06;;;;;;;0.40;0.40;;;3.40;99.90;;;;;;5067057;28;21827;-82
2020/12/10 00:24:32;;;;;;;0.83;0.50;;;3.40;99.90;;;;;;5068184;28;20190;-82
2020/12/10 00:26:58;;;;;;;0.43;0.43;;;3.50;99.90;;;;;;5069643;28;20189;-82
2020/12/10 00:29:23;;;;;;;0.77;0.57;;;3.50;99.90;;;;;;5068973;28;20206;-83
2020/12/10 00:31:49;;;;;;;0.90;0.63;;;3.50;99.90;;;;;;5068132;28;20674;-83
2020/12/10 00:34:14;;;;;;;1.53;1.23;;;3.60;99.90;;;;;;5070818;28;20188;-82
2020/12/10 00:36:40;;;;;;;0.60;0.60;;;3.60;99.90;;;;;;5071198;28;20207;-82
2020/12/10 00:39:05;;;;;;;1.47;0.30;;;3.70;99.90;;;;;;5070284;28;20212;-83
2020/12/10 00:41:31;;;;;;;1.40;0.50;;;3.70;99.90;;;;;;5068971;28;20213;-82
2020/12/10 00:43:57;;;;;;;0.90;0.63;;;3.60;99.90;;;;;;5069460;28;20189;-83
2020/12/10 00:46:22;;;;;;;1.30;0.70;;;3.60;99.90;;;;;;5069531;28;20185;-82
2020/12/10 00:48:48;;;;;;;3.87;0.50;;;3.60;99.90;;;;;;5069622;28;20230;-82
2020/12/10 00:51:13;;;;;;;0.60;0.60;;;3.50;99.90;;;;;;5070320;28;20201;-83
2020/12/10 00:53:39;;;;;;;1.10;0.97;;;3.50;99.90;;;;;;5070017;28;20231;-83
2020/12/10 00:56:04;;;;;;;1.83;1.20;;;3.50;99.90;;;;;;5068497;28;20189;-83
2020/12/10 00:58:30;;;;;;;0.60;0.60;;;3.60;99.90;;;;;;5069172;28;20314;-82
2020/12/10 01:00:55;;;;;;;1.20;1.10;;;3.60;99.90;;;;;;5068729;28;20240;-83
2020/12/10 01:03:21;;;;;;;0.70;0.63;;;3.50;99.90;;;;;;5072609;28;20185;-82
2020/12/10 01:05:47;;;;;;;0.37;0.37;;;3.60;99.90;;;;;;5073430;28;20181;-83
2020/12/10 01:08:12;;;;;;;0.50;0.50;;;3.50;99.90;;;;;;5072922;28;20235;-83
2020/12/10 01:10:38;;;;;;;1.03;1.03;;;3.50;99.90;;;;;;5072894;28;20212;-82
2020/12/10 01:13:04;;;;;;;1.37;0.83;;;3.50;99.90;;;;;;5073672;28;20200;-83
2020/12/10 01:15:29;;;;;;;0.40;0.10;;;3.40;99.90;;;;;;5071512;28;20243;-83
2020/12/10 01:17:55;;;;;;;0.27;0.27;;;3.40;99.90;;;;;;5073575;28;20192;-82
2020/12/10 01:20:21;;;;;;;0.70;0.53;;;3.40;99.90;;;;;;5073111;28;20224;-83
2020/12/10 01:22:46;;;;;;;0.63;0.30;;;3.40;99.90;;;;;;5072857;28;20181;-82
2020/12/10 01:25:12;;;;;;;0.67;0.67;;;3.30;99.90;;;;;;5073525;28;20181;-83
2020/12/10 01:27:37;;;;;;;0.40;0.40;;;3.20;99.90;;;;;;5074952;28;20246;-82
2020/12/10 01:30:06;;;;;;;0.80;0.80;;;3.30;99.90;;;;;;5073351;28;20212;-83
2020/12/10 01:32:32;;;;;;;0.83;0.77;;;3.20;99.90;;;;;;5075098;28;20228;-83
2020/12/10 01:34:58;;;;;;;0.60;0.60;;;3.20;99.90;;;;;;5073313;28;20657;-83
2020/12/10 01:37:23;;;;;;;0.20;0.20;;;3.30;99.90;;;;;;5073509;28;20191;-82
2020/12/10 01:39:49;;;;;;;1.97;1.23;;;3.30;99.90;;;;;;5072368;28;20213;-82
2020/12/10 01:42:15;;;;;;;0.40;0.30;;;3.30;99.90;;;;;;5072950;28;20192;-83
2020/12/10 01:44:41;;;;;;;0.73;0.73;;;3.30;99.90;;;;;;5072753;28;20458;-82
2020/12/10 01:47:08;;;;;;;1.70;0.77;;;3.30;99.90;;;;;;5072822;28;20212;-82
2020/12/10 01:49:37;;;;;;;0.10;0.10;;;3.30;99.90;;;;;;5072435;28;20555;-83
2020/12/10 01:52:04;;;;;;;0.37;0.37;;;3.40;99.90;;;;;;5073689;28;20200;-82
2020/12/10 01:54:29;;;;;;;0.20;0.20;;;3.40;99.90;;;;;;5072355;28;20193;-83
2020/12/10 01:56:56;;;;;;;0.43;0.43;;;3.40;99.90;;;;;;5072899;28;20553;-83
2020/12/10 01:59:22;;;;;;;1.30;0.37;;;3.50;99.90;;;;;;5072726;28;20278;-83
2020/12/10 02:01:49;;;;;;;0.63;0.63;;;3.40;99.90;;;;;;5073107;28;20216;-82
2020/12/10 02:04:44;;;;;;;0.20;0.20;;;3.40;99.90;;;;;;5073790;28;20188;-83
2020/12/10 02:07:09;;;;;;;0.53;0.53;;;3.50;99.90;;;;;;5055168;28;20287;-83
2020/12/10 02:09:35;;;;;;;0.40;0.40;;;3.50;99.90;;;;;;5073689;28;20272;-84
2020/12/10 02:12:00;;;;;;;1.10;0.33;;;3.60;99.90;;;;;;5078067;28;20238;-83
2020/12/10 02:14:37;;;;;;;0.60;0.40;;;3.60;99.90;;;;;;5082364;28;20194;-83
2020/12/10 02:17:06;;;;;;;0.40;0.40;;;3.50;99.90;;;;;;5075624;28;20184;-83
2020/12/10 02:19:31;;;;;;;0.20;0.20;;;3.50;99.90;;;;;;5078491;28;20201;-85
2020/12/10 02:21:57;;;;;;;0.30;0.30;;;3.50;99.90;;;;;;5090044;28;20224;-84
2020/12/10 02:24:22;;;;;;;0.60;0.30;;;3.50;99.90;;;;;;5082610;28;20183;-83
2020/12/10 02:26:48;;;;;;;0.10;0.10;;;3.60;99.90;;;;;;5075082;28;20178;-83
2020/12/10 02:29:18;;;;;;;0.20;0.20;;;3.60;99.90;;;;;;5076310;28;20185;-84
2020/12/10 02:31:44;;;;;;;0.10;0.10;;;3.70;99.90;;;;;;5081912;28;20680;-83
2020/12/10 02:34:10;;;;;;;0.83;0.30;;;3.70;99.90;;;;;;5082564;28;20575;-83
2020/12/10 02:36:36;;;;;;;3.83;0.57;;;3.70;99.90;;;;;;5082954;28;20186;-84
2020/12/10 02:39:05;;;;;;;0.10;0.10;;;3.70;99.90;;;;;;5081225;28;20735;-84
2020/12/10 02:41:31;;;;;;;0.33;0.33;;;3.60;99.90;;;;;;5080318;28;20633;-83
2020/12/10 02:43:57;;;;;;;0.60;0.60;;;3.70;99.90;;;;;;5080857;28;20193;-83
2020/12/10 02:46:22;;;;;;;0.37;0.37;;;3.60;99.90;;;;;;5079624;28;20187;-84
2020/12/10 02:48:48;;;;;;;0.87;0.20;;;3.70;99.90;;;;;;5081730;28;20170;-84
2020/12/10 02:51:14;;;;;;;0.90;0.57;;;3.80;99.90;;;;;;5077669;28;20217;-84
2020/12/10 02:53:40;;;;;;;0.93;0.77;;;3.70;99.90;;;;;;5078459;28;20197;-83
2020/12/10 02:56:14;;;;;;;0.63;0.63;;;3.70;99.90;;;;;;5079093;28;20243;-84
2020/12/10 02:58:41;;;;;;;0.73;0.63;;;3.80;99.90;;;;;;5076860;28;20189;-84
2020/12/10 03:01:07;;;;;;;2.53;0.97;;;3.60;99.90;;;;;;5081502;28;20205;-84
2020/12/10 03:03:33;;;;;;;3.87;0.87;;;3.60;99.90;;;;;;5077082;28;20201;-84
2020/12/10 03:05:59;;;;;;;1.77;0.77;;;3.50;99.90;;;;;;5077112;28;20224;-84
2020/12/10 03:08:25;;;;;;;0.87;0.57;;;3.50;99.90;;;;;;5071248;28;20808;-83
2020/12/10 03:10:52;;;;;;;2.30;0.47;;;3.50;99.90;;;;;;5075931;28;20669;-83
2020/12/10 03:13:19;;;;;;;0.50;0.50;;;3.50;99.90;;;;;;5076550;28;20207;-85
2020/12/10 03:15:44;;;;;;;0.23;0.23;;;3.60;99.90;;;;;;5076428;28;20211;-83
2020/12/10 03:18:10;;;;;;;1.03;0.73;;;3.70;99.90;;;;;;5075289;28;20178;-84
2020/12/10 03:20:36;;;;;;;0.30;0.23;;;3.70;99.90;;;;;;5076000;28;20217;-84
2020/12/10 03:23:02;;;;;;;0.20;0.20;;;3.70;99.90;;;;;;5073761;28;20192;-84
2020/12/10 03:25:27;;;;;;;0.90;0.77;;;3.20;99.90;;;;;;5073400;28;20177;-83
2020/12/10 03:27:53;;;;;;;0.30;0.30;;;2.90;99.90;;;;;;5075018;28;20191;-83
2020/12/10 03:30:18;;;;;;;0.43;0.23;;;3.10;99.90;;;;;;5069995;28;20205;-83
2020/12/10 03:32:44;;;;;;;0.57;0.50;;;3.30;99.90;;;;;;5070110;28;20191;-84
2020/12/10 03:35:10;;;;;;;0.20;0.20;;;3.40;99.90;;;;;;5074124;28;20646;-83
2020/12/10 03:37:35;;;;;;;2.00;0.63;;;3.40;99.90;;;;;;5073721;28;20181;-84
2020/12/10 03:40:02;;;;;;;0.73;0.73;;;3.50;99.90;;;;;;5075540;28;20205;-83
2020/12/10 03:42:28;;;;;;;0.30;0.30;;;3.60;99.90;;;;;;5074151;28;20197;-84
2020/12/10 03:44:53;;;;;;;0.50;0.50;;;3.40;99.90;;;;;;5073369;28;20181;-84
2020/12/10 03:47:19;;;;;;;0.63;0.60;;;3.30;99.90;;;;;;5074821;28;20181;-83
2020/12/10 03:49:45;;;;;;;0.40;0.40;;;3.00;99.90;;;;;;5074800;28;20189;-84
2020/12/10 03:52:10;;;;;;;0.10;0.10;;;2.90;99.90;;;;;;5073789;28;20212;-84
2020/12/10 03:54:36;;;;;;;1.17;0.70;;;3.10;99.90;;;;;;5071555;28;20215;-83
2020/12/10 03:57:02;;;;;;;0.90;0.30;;;2.60;99.90;;;;;;5072661;28;20669;-84
2020/12/10 03:59:28;;;;;;;0.47;0.47;;;2.40;99.90;;;;;;5071350;28;20222;-84
2020/12/10 04:01:54;;;;;;;0.40;0.40;;;2.40;99.90;;;;;;5078503;28;20671;-84
2020/12/10 04:04:20;;;;;;;0.23;0.23;;;2.40;99.90;;;;;;5072410;28;20867;-84
2020/12/10 04:06:45;;;;;;;2.67;0.73;;;2.50;99.90;;;;;;5068342;28;20186;-84
2020/12/10 04:09:11;;;;;;;0.37;0.37;;;2.50;99.90;;;;;;5070687;28;20185;-83
2020/12/10 04:11:38;;;;;;;1.33;0.50;;;2.60;99.90;;;;;;5071895;28;20259;-83
2020/12/10 04:14:04;;;;;;;0.97;0.90;;;2.80;99.90;;;;;;5072578;28;20221;-84
2020/12/10 04:16:29;;;;;;;0.63;0.57;;;2.90;99.90;;;;;;5072432;28;20268;-83
2020/12/10 04:18:55;;;;;;;0.40;0.40;;;2.70;99.90;;;;;;5071529;28;20189;-83
2020/12/10 04:21:20;;;;;;;1.83;0.90;;;2.70;99.90;;;;;;5069621;28;20233;-83
2020/12/10 04:23:46;;;;;;;0.40;0.40;;;2.80;99.90;;;;;;5069650;28;20189;-84
2020/12/10 04:26:15;;;;;;;0.20;0.20;;;3.00;99.90;;;;;;5071429;28;20188;-83
2020/12/10 04:28:41;;;;;;;0.20;0.20;;;3.20;99.90;;;;;;5072692;28;20564;-83
2020/12/10 04:31:07;;;;;;;0.60;0.60;;;3.30;99.90;;;;;;5060592;28;20202;-83
2020/12/10 04:33:32;;;;;;;0.77;0.77;;;3.30;99.90;;;;;;5071648;28;20189;-84
2020/12/10 04:35:58;;;;;;;0.20;0.20;;;3.30;99.90;;;;;;5071101;28;20181;-84
2020/12/10 04:38:24;;;;;;;1.07;0.70;;;3.40;99.90;;;;;;5070561;28;20217;-83
2020/12/10 04:40:50;;;;;;;0.57;0.57;;;3.50;99.90;;;;;;5070655;28;20209;-83
2020/12/10 04:43:17;;;;;;;0.20;0.20;;;3.40;99.90;;;;;;5073039;28;20177;-84
2020/12/10 04:45:43;;;;;;;0.10;0.10;;;3.30;99.90;;;;;;5069907;28;20177;-84
2020/12/10 04:48:09;;;;;;;1.20;0.40;;;3.20;99.90;;;;;;5072785;28;20188;-83
2020/12/10 04:50:37;;;;;;;1.13;0.60;;;3.30;99.90;;;;;;5071248;28;20211;-84
2020/12/10 04:53:04;;;;;;;0.20;0.20;;;3.10;99.90;;;;;;5071984;28;20276;-84
2020/12/10 04:55:30;;;;;;;0.93;0.50;;;3.20;99.90;;;;;;5072952;28;20224;-83
2020/12/10 04:57:59;;;;;;;0.50;0.40;;;2.80;99.90;;;;;;5065925;28;20247;-84
2020/12/10 05:00:26;;;;;;;0.20;0.20;;;2.60;99.90;;;;;;5072827;28;20254;-83
2020/12/10 05:02:51;;;;;;;0.50;0.50;;;2.60;99.90;;;;;;5069809;28;20188;-84
2020/12/10 05:05:29;;;;;;;0.23;0.20;;;2.80;99.90;;;;;;5070236;28;20177;-84
2020/12/10 05:07:57;;;;;;;0.37;0.37;;;2.80;99.90;;;;;;5066116;28;20185;-83
2020/12/10 05:10:23;;;;;;;0.23;0.23;;;2.90;99.90;;;;;;5071396;28;20216;-83
2020/12/10 05:12:49;;;;;;;1.00;0.30;;;3.10;99.90;;;;;;5069695;28;20326;-84
2020/12/10 05:15:31;;;;;;;0.83;0.73;;;3.30;99.90;;;;;;5070706;28;20220;-83
2020/12/10 05:18:07;;;;;;;0.30;0.30;;;3.20;99.90;;;;;;5070827;28;20216;-83
2020/12/10 05:20:57;;;;;;;0.23;0.23;;;2.90;99.90;;;;;;5068705;28;20240;-84
2020/12/10 05:23:31;;;;;;;0.33;0.10;;;2.70;99.90;;;;;;5071724;28;20203;-83
2020/12/10 05:25:57;;;;;;;0.30;0.30;;;2.50;99.90;;;;;;5072021;28;20188;-84
2020/12/10 05:28:25;;;;;;;1.43;0.30;;;2.30;99.90;;;;;;5070373;28;20193;-83
2020/12/10 05:31:01;;;;;;;0.10;0.10;;;2.40;99.90;;;;;;5071401;28;20200;-83
2020/12/10 05:33:27;;;;;;;0.60;0.60;;;2.70;99.90;;;;;;5071065;28;20177;-84
2020/12/10 05:36:07;;;;;;;1.10;0.53;;;2.60;99.90;;;;;;5070360;28;20684;-84
2020/12/10 05:39:04;;;;;;;2.80;2.70;;;2.40;99.90;;;;;;5064392;28;20208;-85
2020/12/10 05:41:31;;;;;;;0.40;0.40;;;2.20;99.90;;;;;;5082449;28;20236;-85
2020/12/10 05:44:16;;;;;;;1.30;1.20;;;2.10;99.90;;;;;;5083390;28;20177;-84
2020/12/10 05:46:45;;;;;;;0.57;0.57;;;2.10;99.90;;;;;;5075342;28;20185;-86
2020/12/10 05:49:11;;;;;;;0.10;0.10;;;2.30;99.90;;;;;;5080407;28;20637;-85
2020/12/10 05:51:48;;;;;;;0.20;0.20;;;2.40;99.90;;;;;;5082794;28;20204;-85
2020/12/10 05:54:18;;;;;;;2.10;0.90;;;2.40;99.90;;;;;;5079027;28;20191;-85
2020/12/10 05:56:50;;;;;;;0.20;0.10;;;2.30;99.90;;;;;;5080644;28;20191;-84
2020/12/10 05:59:17;;;;;;;0.63;0.63;;;2.40;99.90;;;;;;5076902;28;20193;-84
2020/12/10 06:01:43;;;;;;;0.87;0.40;;;2.60;99.90;;;;;;5081932;28;20300;-83
2020/12/10 06:04:12;;;;;;;0.33;0.33;;;2.60;99.90;;;;;;5075582;28;20189;-84
2020/12/10 06:06:38;;;;;;;0.67;0.67;;;2.50;99.90;;;;;;5073566;28;20178;-85
2020/12/10 06:09:05;;;;;;;0.50;0.30;;;2.40;99.90;;;;;;5074925;28;20566;-83
2020/12/10 06:11:33;;;;;;;0.20;0.20;;;2.30;99.90;;;;;;5077205;28;20251;-84
2020/12/10 06:14:03;;;;;;;0.30;0.30;;;2.30;99.90;;;;;;5085723;28;20204;-84
2020/12/10 06:16:30;;;;;;;1.80;0.60;;;2.40;99.90;;;;;;5077862;28;20194;-83
2020/12/10 06:19:03;;;;;;;0.77;0.77;;;2.50;99.90;;;;;;5076918;28;20246;-83
2020/12/10 06:21:43;;;;;;;1.50;0.90;;;2.40;99.90;;;;;;5076496;28;20244;-83
2020/12/10 06:24:27;;;;;;;0.23;0.23;;;2.60;99.90;;;;;;5068710;28;20622;-84
2020/12/10 06:26:53;;;;;;;0.53;0.53;;;2.30;99.90;;;;;;5069895;28;20197;-83
2020/12/10 06:29:37;;;;;;;0.53;0.53;;;2.20;99.90;;;;;;5069137;28;20182;-83
2020/12/10 06:32:13;;;;;;;0.43;0.43;;;2.30;99.90;;;;;;5076059;28;20185;-82
2020/12/10 06:34:51;;;;;;;0.60;0.60;;;2.10;99.90;;;;;;5072964;28;20219;-81
2020/12/10 06:37:25;;;;;;;0.20;0.20;;;2.20;99.90;;;;;;5089566;28;20271;-81
2020/12/10 06:39:56;;;;;;;3.70;0.77;;;2.20;99.90;;;;;;5071744;28;20302;-82
2020/12/10 06:42:22;;;;;;;0.40;0.23;;;2.50;99.90;;;;;;5074580;28;20220;-82
2020/12/10 06:44:49;;;;;;;0.43;0.43;;;2.80;99.90;;;;;;5072193;28;20196;-82
2020/12/10 06:47:15;;;;;;;0.57;0.57;;;2.80;99.90;;;;;;5073515;28;20207;-84
2020/12/10 06:49:41;;;;;;;0.90;0.77;;;2.70;99.90;;;;;;5074142;28;20189;-83
2020/12/10 06:52:10;;;;;;;1.97;1.47;;;2.30;99.90;;;;;;5076007;28;20189;-83
2020/12/10 06:55:11;;;;;;;0.63;0.60;;;2.10;99.90;;;;;;5074547;28;20189;-83
2020/12/10 06:58:05;;;;;;;1.70;1.00;;;2.00;99.90;;;;;;5074176;28;20192;-84
2020/12/10 07:00:53;;;;;;;0.30;0.30;;;2.00;99.90;;;;;;5071463;28;20204;-83
2020/12/10 07:03:30;;;;;;;0.83;0.83;;;2.00;99.90;;;;;;5069879;28;20213;-83
2020/12/10 07:05:55;;;;;;;1.70;1.03;;;1.90;99.90;;;;;;5074527;28;20215;-83
2020/12/10 07:08:21;;;;;;;2.50;1.00;;;1.80;99.90;;;;;;5073001;28;20476;-83
2020/12/10 07:10:52;;;;;;;0.33;0.33;;;1.80;99.90;;;;;;5071800;28;20211;-83
2020/12/10 07:13:30;;;;;;;0.70;0.50;;;1.80;99.90;;;;;;5081972;28;20189;-83
2020/12/10 07:15:56;;;;;;;0.40;0.30;;;1.90;99.90;;;;;;5068978;28;20781;-83
2020/12/10 07:18:22;;;;;;;3.03;0.30;;;2.00;99.90;;;;;;5070448;28;20202;-83
2020/12/10 07:20:48;;;;;;;0.60;0.60;;;2.20;99.90;;;;;;5070312;28;20217;-83
2020/12/10 07:23:14;;;;;;;0.67;0.67;;;2.30;99.90;;;;;;5069199;28;20188;-83
2020/12/10 07:25:40;;;;;;;0.10;0.10;;;2.10;99.90;;;;;;5070434;28;20229;-83
2020/12/10 07:28:06;;;;;;;2.07;0.73;;;2.40;99.90;;;;;;5070166;28;20220;-83
2020/12/10 07:30:32;;;;;;;1.03;1.03;;;2.20;99.90;;;;;;5082906;28;20264;-84
2020/12/10 07:32:59;;;;;;;0.50;0.40;;;2.30;99.90;;;;;;5069294;28;20189;-83
2020/12/10 07:35:36;;;;;;;0.40;0.40;;;2.50;99.90;;;;;;5070445;28;20211;-84
2020/12/10 07:38:12;;;;;;;0.50;0.50;;;2.60;99.90;;;;;;5072917;28;20562;-83
2020/12/10 07:40:38;;;;;;;0.47;0.47;;;2.70;99.90;;;;;;5068077;28;20212;-82
2020/12/10 07:43:06;;;;;;;0.67;0.50;;;2.60;99.90;;;;;;5071687;28;20569;-82
2020/12/10 07:45:32;;;;;;;4.83;1.00;;;2.40;99.90;;;;;;5068201;28;20671;-83
2020/12/10 07:48:03;;;;;;;0.30;0.30;;;2.00;99.90;;;;;;5070195;28;20232;-81
2020/12/10 07:50:30;;;;;;;0.73;0.50;;;2.00;99.90;;;;;;5064775;28;20235;-83
2020/12/10 07:52:58;;;;;;;0.53;0.53;;;1.90;99.90;;;;;;5066303;28;20247;-83
2020/12/10 07:55:28;;;;;;;0.30;0.30;;;2.00;99.90;;;;;;5070109;28;20192;-83
2020/12/10 07:58:19;;;;;;;0.17;0.17;;;1.80;99.90;;;;;;5067366;28;20189;-83
2020/12/10 08:00:46;;;;;;;0.17;0.17;;;2.00;99.90;;;;;;5067950;28;20270;-84
2020/12/10 08:03:46;;;;;;;0.83;0.73;;;1.80;99.90;;;;;;5073358;28;20211;-84
2020/12/10 08:06:13;;;;;;;0.30;0.30;;;1.90;99.90;;;;;;5067086;28;20196;-84
2020/12/10 08:11:50;;;;;;;0.50;0.50;;;1.90;99.90;;;;;;5058676;28;20242;-83
2020/12/10 08:14:27;;;;;;;0.20;0.20;;;2.00;99.90;;;;;;5065586;28;20724;-83
2020/12/10 08:16:54;;;;;;;0.23;0.23;;;2.10;99.90;;;;;;5065797;28;20716;-84
2020/12/10 08:19:25;;;;;;;0.67;0.60;;;2.10;99.90;;;;;;5068662;28;20608;-85
2020/12/10 08:21:52;;;;;;;0.40;0.40;;;2.00;99.90;;;;;;5062774;28;20212;-86
2020/12/10 08:24:37;;;;;;;0.30;0.30;;;2.00;99.90;;;;;;5070472;28;20268;-83
2020/12/10 08:27:04;;;;;;;0.50;0.50;;;1.90;99.90;;;;;;5084625;28;20185;-84
2020/12/10 08:29:29;;;;;;;0.87;0.87;;;2.00;99.90;;;;;;5067598;28;20722;-86
2020/12/10 08:32:12;;;;;;;0.30;0.30;;;2.10;99.90;;;;;;5064411;28;20213;-83
2020/12/10 08:34:39;;;;;;;1.60;1.03;;;2.20;99.90;;;;;;5065670;28;20189;-83
2020/12/10 08:37:07;;;;;;;3.27;2.70;;;2.00;99.90;;;;;;5062156;28;20188;-83
2020/12/10 08:39:38;;;;;;;0.50;0.50;;;2.00;99.90;;;;;;5063121;28;20185;-83
2020/12/10 08:42:06;;;;;;;0.10;0.10;;;2.00;99.90;;;;;;5082812;28;20200;-84
2020/12/10 08:44:50;;;;;;;0.20;0.20;;;2.00;99.90;;;;;;5063357;28;20184;-83
2020/12/10 08:47:24;;;;;;;0.13;0.13;;;2.30;99.90;;;;;;5070305;28;20181;-84
2020/12/10 08:50:22;;;;;;;0.53;0.40;;;2.10;99.90;;;;;;5069540;28;20660;-84
2020/12/10 08:52:58;;;;;;;0.13;0.13;;;2.00;99.90;;;;;;5064405;28;20631;-82
2020/12/10 08:55:23;;;;;;;0.60;0.60;;;1.80;99.90;;;;;;5068875;28;20208;-83
2020/12/10 08:57:50;;;;;;;0.00;0.00;;;1.90;99.90;;;;;;5070122;28;20205;-84
2020/12/10 09:00:16;;;;;;;2.50;0.80;;;2.00;99.90;;;;;;5084919;28;20312;-85
2020/12/10 09:02:42;;;;;;;0.17;0.17;;;2.30;99.90;;;;;;5079145;28;20185;-82
2020/12/10 09:05:07;;;;;;;0.20;0.20;;;2.40;99.90;;;;;;5074684;28;20661;-84
2020/12/10 09:07:33;;;;;;;0.30;0.30;;;2.50;99.90;;;;;;5072808;28;20641;-84
2020/12/10 09:10:01;;;;;;;0.67;0.33;;;2.50;99.90;;;;;;5071005;28;20292;-84
2020/12/10 09:12:27;;;;;;;0.23;0.23;;;2.60;99.90;;;;;;5074027;28;20173;-83
2020/12/10 09:14:52;;;;;;;0.17;0.17;;;2.70;99.90;;;;;;5084436;28;20238;-85
2020/12/10 09:17:18;;;;;;;0.60;0.50;;;2.40;99.90;;;;;;5070588;28;20181;-84
2020/12/10 09:19:43;;;;;;;1.03;0.70;;;2.60;99.90;;;;;;5072800;28;20193;-84
2020/12/10 09:22:12;;;;;;;4.30;0.30;;;2.70;99.90;;;;;;5068333;28;20613;-81
2020/12/10 09:24:38;;;;;;;1.50;0.73;;;2.50;99.90;;;;;;5075564;28;20203;-85
2020/12/10 09:27:07;;;;;;;0.90;0.57;;;2.60;99.90;;;;;;5072795;28;20673;-80
2020/12/10 09:29:33;;;;;;;0.20;0.20;;;2.70;99.90;;;;;;5070885;28;20267;-83
2020/12/10 09:32:00;;;;;;;1.83;0.57;;;2.70;99.90;;;;;;5072386;28;20665;-84
2020/12/10 09:34:25;;;;;;;0.77;0.50;;;2.70;99.90;;;;;;5073282;28;20216;-85
2020/12/10 09:36:51;;;;;;;0.90;0.90;;;2.30;99.90;;;;;;5073496;28;20189;-84
2020/12/10 09:39:17;;;;;;;0.20;0.20;;;2.30;99.90;;;;;;5074580;28;20271;-81
2020/12/10 09:41:43;;;;;;;0.50;0.33;;;2.20;99.90;;;;;;5075646;28;20209;-81
2020/12/10 09:44:09;;;;;;;0.37;0.23;;;2.30;99.90;;;;;;5071295;28;20181;-82
2020/12/10 09:46:35;;;;;;;0.23;0.20;;;2.10;99.90;;;;;;5071975;28;20186;-84
2020/12/10 09:49:01;;;;;;;1.60;0.50;;;2.00;99.90;;;;;;5069714;28;20184;-84
2020/12/10 09:51:35;;;;;;;0.10;0.10;;;2.10;99.90;;;;;;5069905;28;20231;-83
2020/12/10 09:54:07;;;;;;;0.77;0.43;;;2.30;99.90;;;;;;5069107;28;20185;-84
2020/12/10 09:56:55;;;;;;;0.67;0.40;;;2.30;99.90;;;;;;5074560;28;20664;-84
2020/12/10 09:59:20;;;;;;;0.40;0.33;;;2.70;99.90;;;;;;5069324;28;20567;-84
2020/12/10 10:01:46;;;;;;;0.23;0.23;;;2.70;99.90;;;;;;5069638;28;20221;-84
2020/12/10 10:04:11;;;;;;;0.33;0.33;;;2.80;99.90;;;;;;5073771;28;20238;-84
2020/12/10 10:06:37;;;;;;;1.57;0.40;;;3.10;99.90;;;;;;5072870;28;20187;-84
2020/12/10 10:09:05;;;;;;;1.17;0.73;;;3.10;99.90;;;;;;5073406;28;20211;-83
2020/12/10 10:11:30;;;;;;;0.97;0.73;;;3.20;99.90;;;;;;5067496;28;20231;-83
2020/12/10 10:13:56;;;;;;;2.50;2.40;;;3.20;99.90;;;;;;5070871;28;20189;-82
2020/12/10 10:16:27;;;;;;;0.33;0.33;;;3.30;99.90;;;;;;5074533;28;20235;-82
2020/12/10 10:18:53;;;;;;;0.73;0.43;;;3.40;99.90;;;;;;5068223;28;20483;-82
2020/12/10 10:21:19;;;;;;;0.20;0.20;;;3.40;99.90;;;;;;5072347;28;20704;-82
2020/12/10 10:23:45;;;;;;;0.37;0.37;;;3.20;99.90;;;;;;5073681;28;20219;-82
2020/12/10 10:26:11;;;;;;;1.10;0.60;;;2.90;99.90;;;;;;5065640;28;20221;-82
2020/12/10 10:28:36;;;;;;;0.30;0.30;;;2.90;99.90;;;;;;5073550;28;20288;-82
2020/12/10 10:31:02;;;;;;;1.70;0.63;;;2.70;99.90;;;;;;5064768;28;20266;-81
2020/12/10 10:33:28;;;;;;;0.67;0.67;;;3.00;99.90;;;;;;5068830;28;20224;-82
2020/12/10 10:35:53;;;;;;;0.33;0.13;;;3.30;99.90;;;;;;5060581;28;20666;-82
2020/12/10 10:38:20;;;;;;;0.50;0.50;;;3.50;99.90;;;;;;5071237;28;20185;-81
2020/12/10 10:40:46;;;;;;;0.33;0.33;;;3.60;99.90;;;;;;5062742;28;20562;-82
2020/12/10 10:43:11;;;;;;;0.50;0.50;;;3.70;99.90;;;;;;5071258;28;20196;-82
2020/12/10 10:45:37;;;;;;;0.40;0.40;;;3.80;99.90;;;;;;5061973;28;20186;-81
2020/12/10 10:48:03;;;;;;;0.30;0.30;;;3.80;99.90;;;;;;5058038;28;20188;-82
2020/12/10 10:50:28;;;;;;;0.77;0.53;;;3.90;99.90;;;;;;5067440;28;20912;-83
2020/12/10 10:52:54;;;;;;;0.43;0.43;;;4.00;99.90;;;;;;5069617;28;20181;-81
2020/12/10 10:55:19;;;;;;;0.10;0.10;;;4.10;99.90;;;;;;5087909;28;20188;-81
2020/12/10 10:57:45;;;;;;;0.10;0.10;;;4.20;99.90;;;;;;5071676;28;20230;-82
2020/12/10 11:00:10;;;;;;;0.47;0.47;;;4.30;99.90;;;;;;5074367;28;20243;-82
2020/12/10 11:02:36;;;;;;;1.10;0.53;;;4.30;99.90;;;;;;5073564;28;20603;-83
2020/12/10 11:05:02;;;;;;;0.90;0.30;;;4.30;99.90;;;;;;5072274;28;20262;-83
2020/12/10 11:07:27;;;;;;;1.03;0.60;;;3.60;99.90;;;;;;5069354;28;20181;-83
2020/12/10 11:09:53;;;;;;;0.83;0.67;;;2.80;99.90;;;;;;5072095;28;20262;-83
2020/12/10 11:12:19;;;;;;;0.30;0.30;;;2.80;99.90;;;;;;5070767;28;20181;-83
2020/12/10 11:14:45;;;;;;;0.30;0.30;;;3.00;99.90;;;;;;5075117;28;20187;-81
2020/12/10 11:17:11;;;;;;;0.40;0.40;;;3.10;99.90;;;;;;5070164;28;20188;-82
2020/12/10 11:19:37;;;;;;;1.07;0.70;;;2.90;99.90;;;;;;5071573;28;20204;-81
2020/12/10 11:22:02;;;;;;;0.80;0.80;;;3.00;99.90;;;;;;5070834;28;20241;-80
2020/12/10 11:24:28;;;;;;;1.30;0.60;;;3.20;99.90;;;;;;5073094;28;20664;-81
2020/12/10 11:26:55;;;;;;;0.10;0.10;;;3.50;99.90;;;;;;5073699;28;20215;-82
2020/12/10 11:29:21;;;;;;;0.20;0.20;;;3.30;99.90;;;;;;5065069;28;20300;-81
2020/12/10 11:31:47;;;;;;;0.30;0.30;;;3.20;99.90;;;;;;5069691;28;20853;-82
2020/12/10 11:34:12;;;;;;;0.87;0.37;;;3.40;99.90;;;;;;5070541;28;20182;-82
2020/12/10 11:36:38;;;;;;;0.40;0.40;;;3.30;99.90;;;;;;5067540;28;20256;-82
2020/12/10 11:39:04;;;;;;;1.60;0.67;;;3.30;99.90;;;;;;5069778;28;20185;-82
2020/12/10 11:41:29;;;;;;;0.37;0.37;;;3.50;99.90;;;;;;5070103;28;20209;-83
2020/12/10 11:43:55;;;;;;;0.63;0.63;;;3.50;99.90;;;;;;5072386;28;20189;-81
2020/12/10 11:46:20;;;;;;;0.40;0.40;;;3.70;99.90;;;;;;5070805;28;20203;-83
2020/12/10 11:48:46;;;;;;;0.40;0.40;;;3.90;99.90;;;;;;5071334;28;20243;-84
2020/12/10 11:51:12;;;;;;;0.47;0.43;;;4.00;99.90;;;;;;5069940;28;20220;-82
2020/12/10 11:53:39;;;;;;;0.33;0.33;;;4.10;99.90;;;;;;5069653;28;20230;-82
2020/12/10 11:56:05;;;;;;;1.00;1.00;;;4.00;99.90;;;;;;5070990;28;20182;-82
2020/12/10 11:58:33;;;;;;;1.77;0.87;;;3.60;99.90;;;;;;5071612;28;20216;-82
2020/12/10 12:00:59;;;;;;;3.20;1.20;;;3.80;99.90;;;;;;5070648;28;20224;-84
2020/12/10 12:03:25;;;;;;;0.33;0.33;;;3.50;99.90;;;;;;5068944;28;20192;-84
2020/12/10 12:05:52;;;;;;;0.87;0.63;;;3.10;99.90;;;;;;5061660;28;20181;-83
2020/12/10 12:08:18;;;;;;;0.67;0.50;;;3.10;99.90;;;;;;5058693;28;20182;-84
2020/12/10 12:10:43;;;;;;;0.67;0.43;;;2.90;99.90;;;;;;5064662;28;20216;-83
2020/12/10 12:13:09;;;;;;;1.00;0.80;;;2.90;99.90;;;;;;5065581;28;20196;-82
2020/12/10 12:15:34;;;;;;;0.00;0.00;;;3.30;99.90;;;;;;5072206;28;20192;-83
2020/12/10 12:18:00;;;;;;;0.10;0.10;;;3.60;99.90;;;;;;5062813;28;20194;-84
2020/12/10 12:20:25;;;;;;;0.37;0.37;;;3.80;99.90;;;;;;5075189;28;20314;-84
2020/12/10 12:22:52;;;;;;;1.50;1.40;;;3.70;99.90;;;;;;5070958;28;20295;-84
2020/12/10 12:25:18;;;;;;;0.30;0.20;;;3.90;99.90;;;;;;5075892;28;20185;-81
2020/12/10 12:27:43;;;;;;;0.10;0.10;;;3.80;99.90;;;;;;5065469;28;20239;-84
2020/12/10 12:30:09;;;;;;;0.50;0.50;;;4.00;99.90;;;;;;5061970;28;20571;-81
2020/12/10 12:32:34;;;;;;;0.30;0.30;;;4.10;99.90;;;;;;5076251;28;20188;-81
2020/12/10 12:35:00;;;;;;;3.33;1.23;;;3.90;99.90;;;;;;5075502;28;20215;-81
2020/12/10 12:37:27;;;;;;;1.00;0.87;;;3.40;99.90;;;;;;5078080;28;20652;-82
2020/12/10 12:39:52;;;;;;;0.67;0.67;;;3.60;99.90;;;;;;5076773;28;20215;-82
2020/12/10 12:42:21;;;;;;;0.40;0.40;;;3.90;99.90;;;;;;5070126;28;20594;-82
2020/12/10 12:44:46;;;;;;;0.40;0.40;;;3.80;99.90;;;;;;5077885;28;20185;-82
2020/12/10 12:47:12;;;;;;;0.90;0.13;;;3.10;99.90;;;;;;5076947;28;20564;-82
2020/12/10 12:49:39;;;;;;;1.57;0.87;;;3.00;99.90;;;;;;5077006;28;20181;-81
2020/12/10 12:52:04;;;;;;;0.50;0.50;;;2.90;99.90;;;;;;5075443;28;20189;-82
2020/12/10 12:54:30;;;;;;;0.97;0.97;;;2.80;99.90;;;;;;5070997;28;20189;-81
2020/12/10 12:56:56;;;;;;;0.60;0.60;;;3.00;99.90;;;;;;5072489;28;20219;-84
2020/12/10 12:59:21;;;;;;;0.50;0.43;;;3.40;99.90;;;;;;5070210;28;20189;-84
2020/12/10 13:01:47;;;;;;;1.70;0.80;;;3.70;99.90;;;;;;5066180;28;20305;-84
2020/12/10 13:04:15;;;;;;;1.80;0.43;;;3.90;99.90;;;;;;5069246;28;20185;-85